Time;durP1;ratioP1;P1;durP2;ratioP2;P2;SDS_P1;SDS_P2;PMS_P1;PMS_P2;Temp;Humidity;BMP_temperature;BMP_pressure;BME280_temperature;BME280_humidity;BME280_pressure;Samples;Min_cycle;Max_cycle;Signal;HPM_P1;HPM_P2
2022/03/20 00:01:48;;;;;;;10.00;6.10;;;;;;;;;;5049649;28;20121;-82
2022/03/20 00:04:14;;;;;;;9.85;5.75;;;;;;;;;;5032005;28;20046;-82
2022/03/20 00:06:40;;;;;;;8.10;4.97;;;;;;;;;;5014836;28;20613;-82
2022/03/20 00:09:06;;;;;;;8.13;5.25;;;;;;;;;;5031246;28;20149;-82
2022/03/20 00:11:32;;;;;;;9.40;4.32;;;;;;;;;;5034733;28;20677;-81
2022/03/20 00:13:58;;;;;;;8.75;4.60;;;;;;;;;;5031335;28;20050;-81
2022/03/20 00:16:29;;;;;;;9.70;5.80;;;;;;;;;;5010145;28;20041;-82
2022/03/20 00:18:55;;;;;;;9.02;5.30;;;;;;;;;;5026625;28;20049;-81
2022/03/20 00:21:22;;;;;;;7.07;4.57;;;;;;;;;;5030584;28;20405;-81
2022/03/20 00:23:49;;;;;;;6.82;4.82;;;;;;;;;;4999612;28;20049;-80
2022/03/20 00:26:19;;;;;;;7.95;4.45;;;;;;;;;;5028052;28;20048;-80
2022/03/20 00:28:45;;;;;;;10.20;5.03;;;;;;;;;;5027531;28;20072;-80
2022/03/20 00:31:13;;;;;;;11.20;5.53;;;;;;;;;;5027822;28;20049;-79
2022/03/20 00:33:47;;;;;;;9.82;5.13;;;;;;;;;;4995097;28;20056;-80
2022/03/20 00:36:13;;;;;;;10.63;5.15;;;;;;;;;;5030824;28;20042;-80
2022/03/20 00:38:43;;;;;;;8.40;5.22;;;;;;;;;;5009501;28;20041;-80
2022/03/20 00:41:12;;;;;;;9.25;5.53;;;;;;;;;;5032349;28;20080;-80
2022/03/20 00:43:38;;;;;;;8.32;5.03;;;7.10;99.90;;;;;;5008514;28;20073;-80
2022/03/20 00:46:08;;;;;;;10.13;5.90;;;5.80;99.90;;;;;;5025207;28;20049;-80
2022/03/20 00:48:43;;;;;;;7.60;5.20;;;;;;;;;;5023489;28;20089;-80
2022/03/20 00:51:13;;;;;;;12.63;6.13;;;;;;;;;;5030589;28;20410;-80
2022/03/20 00:53:40;;;;;;;12.38;5.20;;;;;;;;;;5008129;28;20057;-81
2022/03/20 00:56:07;;;;;;;7.55;5.47;;;;;;;;;;4983207;28;20156;-80
2022/03/20 00:58:36;;;;;;;8.52;5.03;;;;;;;;;;5016354;28;20505;-80
2022/03/20 01:01:02;;;;;;;9.60;5.07;;;;;;;;;;5029966;28;20111;-80
2022/03/20 01:03:29;;;;;;;11.60;6.45;;;;;;;;;;5047313;28;20037;-80
2022/03/20 01:05:59;;;;;;;10.57;5.53;;;;;;;;;;5014813;28;20057;-80
2022/03/20 01:08:26;;;;;;;9.18;5.82;;;;;;;;;;5014161;28;20139;-80
2022/03/20 01:10:52;;;;;;;9.38;5.88;;;;;;;;;;5028724;28;20479;-80
2022/03/20 01:13:19;;;;;;;9.68;5.90;;;;;;;;;;5029309;28;20045;-80
2022/03/20 01:15:45;;;;;;;8.00;5.53;;;;;;;;;;5038775;28;20053;-80
2022/03/20 01:18:11;;;;;;;10.48;5.57;;;;;;;;;;5043593;28;20595;-80
2022/03/20 01:20:37;;;;;;;12.55;6.22;;;;;;;;;;5030331;28;20049;-80
2022/03/20 01:23:03;;;;;;;9.82;5.45;;;;;;;;;;5030687;28;20454;-80
2022/03/20 01:25:30;;;;;;;8.82;5.55;;;;;;;;;;5024801;28;20049;-80
2022/03/20 01:27:57;;;;;;;8.02;5.53;;;;;;;;;;5027488;28;20094;-80
2022/03/20 01:30:26;;;;;;;11.23;6.68;;;;;;;;;;5030413;28;20141;-80
2022/03/20 01:32:52;;;;;;;10.57;5.90;;;;;;;;;;5029940;28;20087;-80
2022/03/20 01:35:18;;;;;;;7.93;5.90;;;;;;;;;;5013226;28;20375;-80
2022/03/20 01:37:47;;;;;;;10.52;5.63;;;;;;;;;;5008184;28;20063;-80
2022/03/20 01:40:14;;;;;;;8.15;5.90;;;;;;;;;;4996610;28;20057;-80
2022/03/20 01:42:43;;;;;;;9.77;6.47;;;;;;;;;;5030295;28;20056;-80
2022/03/20 01:45:27;;;;;;;8.32;5.72;;;;;;;;;;5028863;28;20586;-80
2022/03/20 01:47:55;;;;;;;7.95;5.38;;;;;;;;;;5028033;28;20392;-81
2022/03/20 01:50:28;;;;;;;10.07;5.70;;;;;;;;;;5029037;28;20065;-81
2022/03/20 01:52:58;;;;;;;9.15;5.70;;;;;;;;;;5011418;28;20046;-80
2022/03/20 01:55:25;;;;;;;10.23;5.40;;;;;;;;;;5028964;28;20426;-80
2022/03/20 01:57:54;;;;;;;11.68;5.70;;;;;;;;;;5029664;28;20053;-81
2022/03/20 02:00:25;;;;;;;11.75;6.60;;;;;;;;;;5025861;28;20116;-80
2022/03/20 02:02:55;;;;;;;10.75;6.18;;;;;;;;;;5028482;28;20050;-81
2022/03/20 02:05:22;;;;;;;9.07;5.55;;;;;;;;;;5030462;28;20041;-81
2022/03/20 02:07:49;;;;;;;9.90;5.97;;;;;;;;;;5012183;28;20064;-80
2022/03/20 02:10:15;;;;;;;10.20;6.15;;;;;;;;;;5025080;28;20045;-81
2022/03/20 02:12:42;;;;;;;11.05;6.40;;;;;;;;;;5028559;28;20060;-80
2022/03/20 02:15:15;;;;;;;10.02;5.80;;;;;;;;;;5012133;28;20069;-80
2022/03/20 02:18:01;;;;;;;11.13;6.93;;;;;;;;;;5015359;28;20084;-81
2022/03/20 02:20:29;;;;;;;10.40;5.70;;;;;;;;;;5028461;28;20625;-81
2022/03/20 02:22:55;;;;;;;8.82;6.43;;;;;;;;;;5025977;28;20091;-81
2022/03/20 02:25:22;;;;;;;10.50;6.85;;;;;;;;;;5026698;28;20100;-81
2022/03/20 02:27:48;;;;;;;9.27;6.38;;;;;;;;;;4998501;28;20072;-81
2022/03/20 02:30:16;;;;;;;9.00;5.43;;;;;;;;;;4993638;28;20049;-80
2022/03/20 02:32:52;;;;;;;10.70;6.18;;;;;;;;;;5026142;28;20118;-80
2022/03/20 02:35:21;;;;;;;11.07;6.90;;;;;;;;;;5024744;28;20176;-80
2022/03/20 02:37:48;;;;;;;12.45;7.00;;;;;;;;;;5029642;28;20125;-80
2022/03/20 02:40:19;;;;;;;12.38;6.50;;;;;;;;;;5033636;28;20051;-80
2022/03/20 02:42:49;;;;;;;11.05;6.63;;;;;;;;;;5028960;28;20177;-80
2022/03/20 02:45:17;;;;;;;9.73;6.80;;;;;;;;;;5030864;28;20136;-81
2022/03/20 02:47:44;;;;;;;10.65;6.32;;;5.70;99.90;;;;;;5033870;28;20076;-80
2022/03/20 02:50:25;;;;;;;15.82;6.93;;;;;;;;;;5028050;28;20056;-80
2022/03/20 02:52:59;;;;;;;16.83;7.45;;;;;;;;;;5027681;28;20133;-80
2022/03/20 02:55:36;;;;;;;9.77;6.78;;;4.80;99.90;;;;;;5019919;28;20395;-81
2022/03/20 02:58:12;;;;;;;11.27;6.22;;;4.70;99.90;;;;;;5038267;28;20042;-81
2022/03/20 03:00:41;;;;;;;12.25;6.78;;;4.70;99.90;;;;;;5012029;28;20049;-81
2022/03/20 03:03:13;;;;;;;13.50;8.50;;;4.60;99.90;;;;;;5029515;28;20099;-81
2022/03/20 03:05:44;;;;;;;12.38;7.65;;;4.70;99.90;;;;;;5028539;28;20069;-81
2022/03/20 03:11:09;;;;;;;15.68;7.78;;;4.50;99.90;;;;;;4949240;28;20061;-81
2022/03/20 03:13:42;;;;;;;14.27;7.30;;;4.50;99.90;;;;;;5011812;28;20045;-81
2022/03/20 03:16:13;;;;;;;11.77;7.45;;;4.50;99.90;;;;;;5029613;28;20049;-80
2022/03/20 03:18:48;;;;;;;11.18;7.18;;;4.50;99.90;;;;;;5011820;28;20143;-80
2022/03/20 03:21:18;;;;;;;16.30;8.20;;;4.40;99.90;;;;;;5011580;28;20517;-80
2022/03/20 03:23:45;;;;;;;12.60;8.40;;;4.40;99.90;;;;;;5002084;28;20546;-80
2022/03/20 03:26:17;;;;;;;11.75;8.13;;;4.40;99.90;;;;;;5025801;28;20154;-80
2022/03/20 03:28:52;;;;;;;11.80;7.63;;;4.40;99.90;;;;;;4992550;28;20069;-80
2022/03/20 03:31:18;;;;;;;12.57;8.73;;;4.30;99.90;;;;;;5013818;28;20089;-80
2022/03/20 03:36:32;;;;;;;13.88;8.63;;;;;;;;;;5015291;28;20501;-80
2022/03/20 03:38:58;;;;;;;12.57;8.35;;;;;;;;;;5015153;28;20312;-81
2022/03/20 03:41:30;;;;;;;12.25;8.50;;;;;;;;;;5015762;28;20467;-80
2022/03/20 03:43:56;;;;;;;14.43;9.52;;;;;;;;;;5001419;28;20053;-80
2022/03/20 03:46:22;;;;;;;12.30;8.77;;;;;;;;;;5031282;28;20053;-80
2022/03/20 03:48:49;;;;;;;15.52;9.50;;;4.30;99.90;;;;;;5024949;28;20056;-80
2022/03/20 03:51:15;;;;;;;15.52;8.38;;;;;;;;;;5021359;28;20057;-81
2022/03/20 03:53:41;;;;;;;12.88;9.05;;;;;;;;;;5015574;28;20117;-81
2022/03/20 03:56:08;;;;;;;13.77;9.85;;;;;;;;;;5012638;28;20487;-80
2022/03/20 03:58:34;;;;;;;14.57;9.52;;;;;;;;;;5014522;28;20378;-80
2022/03/20 04:01:00;;;;;;;11.77;8.43;;;;;;;;;;5014929;28;20049;-81
2022/03/20 04:03:27;;;;;;;14.65;9.82;;;;;;;;;;5012682;28;20050;-80
2022/03/20 04:05:54;;;;;;;12.43;9.55;;;;;;;;;;5017103;28;20485;-80
2022/03/20 04:08:20;;;;;;;13.35;9.55;;;;;;;;;;5030516;28;20177;-80
2022/03/20 04:10:47;;;;;;;20.20;10.73;;;;;;;;;;4998284;28;20156;-80
2022/03/20 04:13:13;;;;;;;14.40;10.00;;;;;;;;;;5027825;28;20054;-80
2022/03/20 04:15:42;;;;;;;17.98;10.73;;;;;;;;;;5018715;28;20053;-80
2022/03/20 04:18:12;;;;;;;17.92;9.75;;;;;;;;;;5017316;28;20045;-81
2022/03/20 04:20:44;;;;;;;16.48;10.25;;;;;;;;;;5039777;28;20132;-80
2022/03/20 04:25:54;;;;;;;16.25;10.07;;;;;;;;;;5014821;28;20081;-83
2022/03/20 04:28:21;;;;;;;16.35;10.63;;;;;;;;;;4996380;28;20045;-80
2022/03/20 04:30:52;;;;;;;18.65;10.05;;;;;;;;;;5032881;28;20045;-80
2022/03/20 04:33:18;;;;;;;16.23;10.50;;;;;;;;;;5007553;28;20045;-80
2022/03/20 04:35:44;;;;;;;13.43;11.15;;;;;;;;;;5014562;28;20434;-80
2022/03/20 04:38:13;;;;;;;18.35;10.65;;;;;;;;;;5032333;28;20107;-80
2022/03/20 04:40:45;;;;;;;17.98;10.57;;;;;;;;;;5032544;28;20105;-80
2022/03/20 04:43:11;;;;;;;16.08;10.05;;;4.20;99.90;;;;;;5030875;28;20103;-80
2022/03/20 04:45:37;;;;;;;19.17;10.48;;;3.80;99.90;;;;;;5030629;28;20053;-80
2022/03/20 04:59:05;;;;;;;16.55;10.57;;;3.80;99.90;;;;;;5015391;28;20066;-82
2022/03/20 05:01:31;;;;;;;16.90;12.27;;;3.80;99.90;;;;;;5015656;28;20064;-81
2022/03/20 05:04:00;;;;;;;18.48;11.15;;;3.70;99.90;;;;;;5010527;28;20445;-82
2022/03/20 05:06:27;;;;;;;14.48;10.55;;;3.70;99.90;;;;;;5032734;28;20079;-80
2022/03/20 05:08:53;;;;;;;17.40;10.95;;;3.70;99.90;;;;;;5035847;28;20048;-82
2022/03/20 05:14:06;;;;;;;18.08;11.35;;;3.60;99.90;;;;;;5038988;28;20512;-81
2022/03/20 05:16:31;;;;;;;14.50;10.45;;;3.70;99.90;;;;;;5030211;28;20053;-80
2022/03/20 05:18:57;;;;;;;18.40;11.63;;;3.70;99.90;;;;;;5017752;28;20132;-80
2022/03/20 05:21:27;;;;;;;20.45;11.45;;;3.70;99.90;;;;;;5017687;28;20041;-80
2022/03/20 05:23:53;;;;;;;19.40;12.02;;;3.60;99.90;;;;;;5033541;28;20358;-81
2022/03/20 05:26:19;;;;;;;17.95;11.15;;;3.60;99.90;;;;;;5017259;28;20056;-81
2022/03/20 05:28:45;;;;;;;24.88;13.00;;;3.60;99.90;;;;;;5030039;28;20046;-81
2022/03/20 05:31:16;;;;;;;18.38;11.13;;;3.50;99.90;;;;;;5029651;28;20064;-81
2022/03/20 05:33:44;;;;;;;16.10;11.65;;;3.60;99.90;;;;;;5033502;28;20127;-81
2022/03/20 05:36:17;;;;;;;16.25;12.23;;;3.50;99.90;;;;;;5016942;28;20037;-82
2022/03/20 05:38:43;;;;;;;25.67;11.68;;;3.50;99.90;;;;;;5046049;28;20128;-81
2022/03/20 05:43:53;;;;;;;21.15;12.43;;;3.50;99.90;;;;;;5033201;28;20132;-81
2022/03/20 05:46:18;;;;;;;20.08;12.05;;;3.40;99.90;;;;;;5024988;28;20500;-81
2022/03/20 05:48:45;;;;;;;14.65;10.85;;;3.50;99.90;;;;;;5034037;28;20049;-83
2022/03/20 05:51:15;;;;;;;22.98;11.43;;;3.40;99.90;;;;;;5025911;28;20037;-80
2022/03/20 05:53:41;;;;;;;18.15;11.70;;;3.50;99.90;;;;;;5039893;28;20071;-81
2022/03/20 05:58:54;;;;;;;20.20;12.02;;;3.40;99.90;;;;;;5023265;28;20145;-80
2022/03/20 06:01:20;;;;;;;17.75;11.57;;;3.40;99.90;;;;;;5041551;28;20063;-80
2022/03/20 06:03:46;;;;;;;19.10;11.00;;;3.40;99.90;;;;;;5049544;28;20049;-81
2022/03/20 06:06:11;;;;;;;25.67;13.15;;;3.40;99.90;;;;;;5048853;28;20045;-80
2022/03/20 06:08:40;;;;;;;22.95;12.32;;;3.40;99.90;;;;;;5038768;28;20635;-80
2022/03/20 06:11:09;;;;;;;20.35;13.30;;;3.40;99.90;;;;;;5029630;28;20045;-80
2022/03/20 06:13:37;;;;;;;18.05;12.85;;;3.30;99.90;;;;;;5033576;28;20053;-80
2022/03/20 06:16:05;;;;;;;22.40;13.43;;;3.40;99.90;;;;;;5045743;28;20057;-81
2022/03/20 06:18:31;;;;;;;19.73;12.30;;;3.40;99.90;;;;;;5033014;28;20089;-81
2022/03/20 06:20:57;;;;;;;19.45;12.82;;;3.40;99.90;;;;;;5018017;28;20127;-81
2022/03/20 06:23:23;;;;;;;18.65;11.70;;;3.40;99.90;;;;;;5035374;28;20045;-80
2022/03/20 06:25:51;;;;;;;17.75;12.35;;;3.40;99.90;;;;;;5034721;28;20041;-81
2022/03/20 06:28:17;;;;;;;21.27;13.95;;;3.30;99.90;;;;;;4990069;28;20067;-81
2022/03/20 06:30:43;;;;;;;15.57;11.95;;;3.40;99.90;;;;;;5003928;28;20124;-81
2022/03/20 06:33:09;;;;;;;20.52;13.88;;;3.40;99.90;;;;;;5014580;28;20138;-81
2022/03/20 06:35:35;;;;;;;20.85;12.82;;;3.40;99.90;;;;;;5017802;28;20056;-81
2022/03/20 06:38:01;;;;;;;19.27;12.70;;;3.40;99.90;;;;;;5027405;28;20049;-81
2022/03/20 06:40:27;;;;;;;20.08;13.13;;;3.40;99.90;;;;;;5028415;28;20053;-81
2022/03/20 06:42:52;;;;;;;15.70;12.35;;;3.40;99.90;;;;;;4988939;28;20098;-81
2022/03/20 06:45:20;;;;;;;21.92;13.18;;;3.40;99.90;;;;;;5031039;28;20060;-81
2022/03/20 06:47:46;;;;;;;20.48;13.32;;;3.40;99.90;;;;;;5016080;28;20167;-81
2022/03/20 06:50:13;;;;;;;17.13;12.25;;;3.50;99.90;;;;;;5049969;28;20075;-81
2022/03/20 06:52:43;;;;;;;21.73;13.38;;;3.50;99.90;;;;;;5031743;28;20587;-80
2022/03/20 06:55:14;;;;;;;20.30;13.88;;;3.50;99.90;;;;;;5043958;28;20084;-81
2022/03/20 06:57:45;;;;;;;21.90;14.30;;;3.50;99.90;;;;;;5032597;28;20421;-81
2022/03/20 07:00:16;;;;;;;22.15;12.85;;;3.50;99.90;;;;;;5041813;28;20466;-81
2022/03/20 07:02:45;;;;;;;20.10;14.80;;;3.50;99.90;;;;;;5033128;28;20490;-81
2022/03/20 07:05:11;;;;;;;22.92;15.18;;;3.50;99.90;;;;;;5019384;28;20056;-81
2022/03/20 07:07:40;;;;;;;20.52;14.10;;;3.60;99.90;;;;;;4995035;28;20049;-81
2022/03/20 07:10:08;;;;;;;18.92;12.45;;;3.50;99.90;;;;;;5015618;28;20509;-81
2022/03/20 07:12:37;;;;;;;16.15;12.65;;;3.60;99.90;;;;;;4993516;28;20050;-81
2022/03/20 07:15:04;;;;;;;21.08;14.35;;;3.60;99.90;;;;;;5052870;28;20160;-81
2022/03/20 07:17:30;;;;;;;22.15;13.60;;;3.60;99.90;;;;;;5034690;28;20434;-81
2022/03/20 07:19:58;;;;;;;23.35;14.90;;;3.70;99.90;;;;;;5030964;28;20111;-81
2022/03/20 07:22:26;;;;;;;17.85;13.45;;;3.70;99.90;;;;;;5001373;28;20537;-81
2022/03/20 07:24:52;;;;;;;22.23;14.10;;;3.70;99.90;;;;;;5035573;28;20045;-81
2022/03/20 07:30:07;;;;;;;20.48;14.65;;;3.80;99.90;;;;;;5017925;28;20071;-81
2022/03/20 07:32:34;;;;;;;19.00;12.85;;;3.80;99.90;;;;;;5031103;28;20137;-81
2022/03/20 07:35:00;;;;;;;24.92;15.65;;;3.80;99.90;;;;;;5029375;28;20041;-82
2022/03/20 07:37:32;;;;;;;19.20;14.27;;;3.90;99.90;;;;;;5013115;28;20052;-81
2022/03/20 07:40:07;;;;;;;21.42;13.88;;;3.90;99.90;;;;;;5017021;28;20084;-82
2022/03/20 07:42:33;;;;;;;22.70;13.38;;;3.90;99.90;;;;;;4983771;28;20446;-80
2022/03/20 07:45:00;;;;;;;17.30;13.23;;;4.00;99.90;;;;;;4986080;28;20092;-79
2022/03/20 07:47:26;;;;;;;21.98;14.40;;;4.00;99.90;;;;;;5027864;28;20095;-81
2022/03/20 07:49:53;;;;;;;18.77;13.07;;;4.00;99.90;;;;;;5011167;28;20378;-79
2022/03/20 07:52:19;;;;;;;22.58;13.88;;;4.10;99.90;;;;;;5007058;28;20129;-79
2022/03/20 07:54:45;;;;;;;23.33;14.95;;;4.10;99.90;;;;;;4995207;28;20129;-80
2022/03/20 07:57:11;;;;;;;19.63;13.15;;;4.10;99.90;;;;;;4994180;28;20045;-79
2022/03/20 07:59:38;;;;;;;20.77;13.82;;;4.10;99.90;;;;;;4997954;28;20050;-80
2022/03/20 08:02:05;;;;;;;19.60;13.10;;;4.20;99.90;;;;;;5032559;28;20587;-80
2022/03/20 08:04:31;;;;;;;21.25;13.77;;;4.20;99.90;;;;;;5022786;28;20068;-78
2022/03/20 08:06:58;;;;;;;19.92;13.65;;;4.30;99.90;;;;;;4985568;28;20072;-79
2022/03/20 08:09:27;;;;;;;26.95;15.52;;;4.30;99.90;;;;;;5014613;28;20066;-81
2022/03/20 08:11:53;;;;;;;20.83;14.07;;;4.40;99.90;;;;;;5032520;28;20137;-79
2022/03/20 08:14:20;;;;;;;21.08;15.70;;;4.40;99.90;;;;;;5022272;28;20172;-79
2022/03/20 08:16:48;;;;;;;23.23;14.20;;;4.50;99.90;;;;;;5014307;28;20088;-79
2022/03/20 08:19:16;;;;;;;24.42;15.00;;;4.50;99.90;;;;;;5034627;28;20131;-80
2022/03/20 08:21:43;;;;;;;23.00;15.48;;;4.60;99.90;;;;;;4999028;28;20053;-79
2022/03/20 08:24:12;;;;;;;21.27;14.30;;;4.60;99.90;;;;;;5037410;28;20037;-79
2022/03/20 08:26:40;;;;;;;21.63;13.68;;;4.70;99.90;;;;;;5009114;28;20489;-79
2022/03/20 08:29:08;;;;;;;22.65;14.27;;;4.70;99.90;;;;;;5038235;28;20685;-79
2022/03/20 08:31:34;;;;;;;23.52;14.98;;;4.80;99.90;;;;;;5004492;28;20049;-79
2022/03/20 08:34:00;;;;;;;21.88;13.77;;;4.80;99.90;;;;;;5011625;28;20049;-79
2022/03/20 08:36:26;;;;;;;22.52;14.77;;;4.90;99.90;;;;;;5042648;28;20056;-80
2022/03/20 08:38:55;;;;;;;21.13;14.50;;;5.00;99.90;;;;;;5006646;28;20048;-83
2022/03/20 08:41:21;;;;;;;27.02;15.52;;;5.00;99.90;;;;;;5021409;28;20365;-80
2022/03/20 08:43:47;;;;;;;25.40;16.20;;;5.10;99.90;;;;;;5021346;28;20125;-81
2022/03/20 08:46:16;;;;;;;19.48;14.40;;;5.20;99.90;;;;;;5007681;28;20057;-83
2022/03/20 08:48:42;;;;;;;23.38;16.27;;;5.20;99.90;;;;;;5012487;28;20358;-83
2022/03/20 08:51:07;;;;;;;26.23;16.95;;;5.30;99.90;;;;;;5006803;28;20120;-84
2022/03/20 08:53:33;;;;;;;28.30;15.80;;;5.30;99.90;;;;;;4982183;28;20520;-83
2022/03/20 08:55:59;;;;;;;26.20;16.65;;;5.40;99.90;;;;;;5017184;28;20250;-83
2022/03/20 08:58:25;;;;;;;21.25;15.23;;;5.50;99.90;;;;;;5033342;28;20038;-83
2022/03/20 09:00:51;;;;;;;24.98;17.23;;;5.50;99.60;;;;;;4992246;28;20125;-83
2022/03/20 09:03:16;;;;;;;22.73;15.30;;;5.50;99.30;;;;;;4992822;28;20510;-83
2022/03/20 09:05:43;;;;;;;21.23;15.25;;;5.60;99.20;;;;;;5025951;28;20053;-83
2022/03/20 09:08:09;;;;;;;24.85;14.43;;;5.60;99.00;;;;;;5007559;28;20421;-84
2022/03/20 09:10:36;;;;;;;24.60;16.63;;;5.70;99.00;;;;;;5019962;28;20188;-84
2022/03/20 09:13:05;;;;;;;20.17;14.75;;;5.70;99.10;;;;;;5011500;28;20049;-80
2022/03/20 09:15:37;;;;;;;24.83;16.40;;;5.80;99.10;;;;;;4979204;28;20466;-84
2022/03/20 09:20:47;;;;;;;29.00;17.83;;;5.90;98.90;;;;;;5000937;28;20154;-85
2022/03/20 09:23:32;;;;;;;27.15;18.35;;;6.00;98.80;;;;;;4998601;28;21008;-88
2022/03/20 09:25:57;;;;;;;26.65;16.40;;;6.10;99.10;;;;;;5014919;28;20077;-83
2022/03/20 09:28:23;;;;;;;24.55;16.92;;;6.20;98.90;;;;;;5027510;28;20139;-82
2022/03/20 09:30:49;;;;;;;21.70;14.90;;;6.30;98.80;;;;;;5014469;28;20052;-83
2022/03/20 09:33:15;;;;;;;25.85;16.50;;;6.30;98.50;;;;;;5013478;28;20057;-83
2022/03/20 09:35:41;;;;;;;26.17;17.50;;;6.40;98.40;;;;;;5033267;28;20766;-83
2022/03/20 09:38:13;;;;;;;26.70;17.17;;;6.40;98.30;;;;;;5015337;28;20048;-83
2022/03/20 09:40:40;;;;;;;27.55;17.13;;;6.50;98.20;;;;;;5013347;28;20128;-83
2022/03/20 09:43:06;;;;;;;23.42;16.83;;;6.50;98.20;;;;;;4992753;28;20042;-84
2022/03/20 09:45:34;;;;;;;25.92;16.27;;;6.60;97.70;;;;;;5002174;28;20049;-83
2022/03/20 09:48:00;;;;;;;24.58;18.02;;;6.60;97.50;;;;;;5013003;28;20144;-84
2022/03/20 09:50:26;;;;;;;25.08;17.38;;;6.70;97.40;;;;;;5010843;28;20383;-84
2022/03/20 09:52:54;;;;;;;22.25;15.80;;;6.70;97.10;;;;;;5029449;28;20061;-84
2022/03/20 09:55:21;;;;;;;20.35;15.02;;;6.80;97.00;;;;;;5007216;28;20129;-84
2022/03/20 09:57:47;;;;;;;25.40;17.58;;;6.80;96.90;;;;;;5023412;28;20394;-84
2022/03/20 10:00:15;;;;;;;23.40;16.77;;;6.90;96.70;;;;;;5022687;28;20052;-81
2022/03/20 10:02:40;;;;;;;21.75;15.60;;;6.90;96.40;;;;;;5011283;28;20343;-83
2022/03/20 10:05:09;;;;;;;23.85;16.83;;;7.00;96.30;;;;;;5030482;28;20076;-83
2022/03/20 10:07:40;;;;;;;26.10;16.90;;;7.10;95.90;;;;;;5032918;28;20515;-83
2022/03/20 10:10:10;;;;;;;28.05;18.73;;;7.10;95.90;;;;;;5006843;28;20096;-82
2022/03/20 10:12:43;;;;;;;27.10;18.00;;;7.20;95.50;;;;;;4999263;28;20053;-82
2022/03/20 10:15:09;;;;;;;24.48;17.00;;;7.20;95.20;;;;;;5021281;28;20450;-81
2022/03/20 10:17:39;;;;;;;26.52;17.38;;;7.30;95.30;;;;;;5005820;28;20085;-82
2022/03/20 10:20:35;;;;;;;24.65;17.13;;;7.30;94.40;;;;;;5029129;28;20033;-82
2022/03/20 10:23:01;;;;;;;24.83;17.48;;;7.30;94.20;;;;;;4999896;28;20136;-82
2022/03/20 10:25:27;;;;;;;23.60;16.70;;;7.40;94.40;;;;;;5007149;28;20137;-80
2022/03/20 10:27:57;;;;;;;25.50;17.55;;;7.40;94.20;;;;;;5025061;28;20065;-81
2022/03/20 10:30:24;;;;;;;28.70;19.60;;;7.50;93.80;;;;;;5022477;28;20041;-83
2022/03/20 10:32:51;;;;;;;30.92;17.48;;;7.50;93.50;;;;;;5030067;28;20147;-82
2022/03/20 10:35:17;;;;;;;23.85;17.83;;;7.60;93.10;;;;;;5012933;28;20053;-82
2022/03/20 10:38:01;;;;;;;24.52;17.75;;;7.60;92.40;;;;;;5030174;28;20064;-81
2022/03/20 10:40:29;;;;;;;22.90;16.80;;;7.70;91.40;;;;;;4998709;28;20037;-83
2022/03/20 10:43:11;;;;;;;21.88;16.15;;;7.80;91.90;;;;;;5018011;28;20063;-83
2022/03/20 10:46:00;;;;;;;22.88;16.95;;;7.80;91.40;;;;;;5030373;28;20057;-80
2022/03/20 10:49:05;;;;;;;28.40;18.08;;;7.90;91.40;;;;;;5029479;28;20053;-82
2022/03/20 10:51:38;;;;;;;26.50;16.85;;;8.00;91.20;;;;;;5012264;28;20067;-83
2022/03/20 10:54:08;;;;;;;22.85;17.25;;;;;;;;;;5028044;28;20045;-82
2022/03/20 10:56:38;;;;;;;25.00;17.08;;;;;;;;;;4994444;28;20049;-79
2022/03/20 10:59:15;;;;;;;25.48;17.73;;;;;;;;;;5029450;28;20052;-82
2022/03/20 11:01:46;;;;;;;27.77;19.17;;;;;;;;;;5029108;28;20209;-83
2022/03/20 11:04:12;;;;;;;23.60;16.90;;;;;;;;;;5029324;28;20050;-82
2022/03/20 11:06:50;;;;;;;24.27;16.63;;;8.10;91.80;;;;;;5020137;28;20048;-82
2022/03/20 11:09:16;;;;;;;24.17;17.73;;;8.40;89.30;;;;;;4992852;28;20163;-82
2022/03/20 11:11:43;;;;;;;23.50;17.88;;;8.50;90.00;;;;;;5029408;28;20304;-81
2022/03/20 11:14:10;;;;;;;30.50;17.63;;;8.50;89.10;;;;;;5031901;28;20363;-81
2022/03/20 11:16:38;;;;;;;27.48;18.95;;;8.50;88.60;;;;;;5012480;28;20595;-80
2022/03/20 11:19:10;;;;;;;27.30;19.17;;;8.60;88.30;;;;;;4995850;28;20052;-81
2022/03/20 11:21:40;;;;;;;24.95;17.38;;;8.70;87.20;;;;;;5026134;28;20262;-81
2022/03/20 11:24:07;;;;;;;30.05;18.38;;;8.80;87.10;;;;;;4993896;28;20050;-81
2022/03/20 11:26:39;;;;;;;27.15;18.33;;;8.80;86.70;;;;;;5002571;28;20076;-81
2022/03/20 11:29:08;;;;;;;27.50;18.17;;;8.90;85.20;;;;;;5016853;28;20080;-81
2022/03/20 11:31:37;;;;;;;27.90;19.45;;;8.90;85.50;;;;;;5026298;28;20045;-82
2022/03/20 11:34:08;;;;;;;26.08;18.23;;;9.00;85.50;;;;;;4990464;28;20133;-86
2022/03/20 11:37:00;;;;;;;26.88;18.90;;;9.00;83.60;;;;;;5017238;28;20092;-80
2022/03/20 11:39:26;;;;;;;28.35;19.77;;;9.10;83.10;;;;;;5014693;28;20049;-81
2022/03/20 11:42:24;;;;;;;24.60;17.70;;;9.20;84.40;;;;;;5012442;28;20052;-80
2022/03/20 11:45:08;;;;;;;22.83;16.75;;;9.20;85.70;;;;;;5000995;28;20495;-81
2022/03/20 11:47:39;;;;;;;30.08;18.92;;;9.30;85.20;;;;;;5013378;28;20068;-81
2022/03/20 11:50:09;;;;;;;25.88;18.65;;;;;;;;;;4994502;28;20056;-81
2022/03/20 11:53:00;;;;;;;25.77;18.85;;;;;;;;;;5033204;28;20041;-81
2022/03/20 11:55:27;;;;;;;26.67;18.88;;;9.40;85.20;;;;;;4999096;28;20132;-81
2022/03/20 11:57:53;;;;;;;32.08;19.30;;;9.50;83.30;;;;;;5010337;28;20049;-81
2022/03/20 12:00:24;;;;;;;24.27;18.48;;;9.60;84.30;;;;;;5002866;28;20461;-80
2022/03/20 12:02:53;;;;;;;26.83;18.80;;;9.60;82.10;;;;;;5037613;28;20067;-81
2022/03/20 12:05:54;;;;;;;27.98;19.65;;;9.70;81.30;;;;;;5006511;28;20124;-80
2022/03/20 12:08:41;;;;;;;28.50;17.90;;;9.80;80.00;;;;;;5007941;28;20136;-80
2022/03/20 12:11:28;;;;;;;25.73;18.30;;;9.80;80.20;;;;;;5034927;28;20048;-77
2022/03/20 12:14:28;;;;;;;25.40;18.70;;;9.80;79.90;;;;;;5037485;28;20508;-79
2022/03/20 12:16:55;;;;;;;28.83;19.98;;;9.90;78.60;;;;;;5037623;28;20042;-79
2022/03/20 12:19:41;;;;;;;28.63;20.55;;;9.90;78.90;;;;;;5039518;28;20049;-78
2022/03/20 12:22:15;;;;;;;28.58;20.77;;;9.90;76.50;;;;;;5001528;28;20084;-78
2022/03/20 12:24:49;;;;;;;29.80;20.30;;;10.00;76.10;;;;;;5001983;28;20115;-78
2022/03/20 12:27:24;;;;;;;30.63;20.27;;;10.00;76.30;;;;;;5043171;28;20055;-78
2022/03/20 12:29:50;;;;;;;24.73;18.45;;;;;;;;;;5033540;28;20132;-77
2022/03/20 12:32:16;;;;;;;28.13;19.20;;;;;;;;;;5030635;28;20064;-77
2022/03/20 12:34:43;;;;;;;25.58;19.27;;;;;;;;;;5030923;28;20045;-77
2022/03/20 12:37:32;;;;;;;27.70;18.77;;;;;;;;;;5046686;28;20401;-78
2022/03/20 12:40:30;;;;;;;26.73;19.40;;;10.10;77.00;;;;;;5010930;28;20053;-80
2022/03/20 12:43:07;;;;;;;24.55;18.55;;;;;;;;;;4985305;28;20104;-80
2022/03/20 12:45:44;;;;;;;27.95;19.25;;;;;;;;;;5038891;28;20045;-78
2022/03/20 12:48:12;;;;;;;32.08;19.08;;;;;;;;;;5028073;28;20084;-81
2022/03/20 12:50:39;;;;;;;24.35;17.73;;;;;;;;;;5047161;28;20053;-80
2022/03/20 12:53:14;;;;;;;26.52;19.20;;;;;;;;;;4995178;28;20350;-80
2022/03/20 12:55:41;;;;;;;27.52;19.73;;;;;;;;;;5030248;28;20132;-81
2022/03/20 12:58:14;;;;;;;25.77;20.27;;;;;;;;;;5024684;28;20117;-80
2022/03/20 13:00:40;;;;;;;30.83;21.77;;;;;;;;;;4995410;28;20127;-81
2022/03/20 13:03:14;;;;;;;29.63;20.02;;;;;;;;;;4995935;28;20091;-81
2022/03/20 13:05:51;;;;;;;27.50;19.70;;;;;;;;;;5025385;28;20045;-81
2022/03/20 13:08:26;;;;;;;26.45;20.35;;;;;;;;;;5043640;28;20512;-81
2022/03/20 13:10:54;;;;;;;32.15;21.13;;;;;;;;;;5022835;28;20042;-81
2022/03/20 13:13:26;;;;;;;25.23;18.55;;;10.30;75.90;;;;;;5017594;28;20049;-80
2022/03/20 13:15:51;;;;;;;32.65;19.55;;;10.20;72.70;;;;;;5030367;28;20123;-81
2022/03/20 13:18:24;;;;;;;27.55;18.55;;;10.20;72.60;;;;;;4979727;28;20120;-81
2022/03/20 13:20:53;;;;;;;24.95;19.77;;;10.20;72.20;;;;;;5005737;28;20124;-81
2022/03/20 13:23:22;;;;;;;26.52;18.98;;;10.20;73.00;;;;;;5026495;28;20144;-80
2022/03/20 13:26:00;;;;;;;24.85;19.33;;;10.20;73.20;;;;;;5035133;28;20483;-81
2022/03/20 13:28:40;;;;;;;29.80;20.23;;;10.20;72.70;;;;;;5028759;28;20060;-80
2022/03/20 13:31:19;;;;;;;27.15;20.30;;;10.20;71.80;;;;;;5027698;28;20049;-80
2022/03/20 13:33:55;;;;;;;25.77;19.67;;;10.20;72.40;;;;;;5032452;28;20482;-80
2022/03/20 13:36:46;;;;;;;26.85;19.85;;;10.30;72.70;;;;;;5019952;28;20137;-80
2022/03/20 13:39:15;;;;;;;28.83;19.60;;;10.30;72.10;;;;;;5046528;28;20122;-81
2022/03/20 13:41:43;;;;;;;26.80;19.50;;;10.40;72.50;;;;;;4982254;28;20129;-80
2022/03/20 13:44:12;;;;;;;30.58;20.95;;;10.40;72.90;;;;;;5007834;28;20093;-81
2022/03/20 13:46:38;;;;;;;27.08;20.48;;;;;;;;;;5022163;28;20562;-81
2022/03/20 13:49:13;;;;;;;29.65;18.92;;;;;;;;;;4992900;28;20049;-80
2022/03/20 13:51:42;;;;;;;26.40;18.60;;;;;;;;;;5028434;28;20163;-81
2022/03/20 13:54:29;;;;;;;27.20;19.73;;;;;;;;;;5033795;28;20115;-81
2022/03/20 13:57:08;;;;;;;30.15;21.30;;;;;;;;;;5035483;28;20044;-80
2022/03/20 13:59:53;;;;;;;30.33;19.02;;;10.50;73.30;;;;;;5029285;28;20100;-81
2022/03/20 14:02:20;;;;;;;24.38;18.77;;;10.20;70.20;;;;;;5007971;28;20079;-81